Time;durP1;ratioP1;P1;durP2;ratioP2;P2;SDS_P1;SDS_P2;PMS_P1;PMS_P2;Temp;Humidity;BMP_temperature;BMP_pressure;BME280_temperature;BME280_humidity;BME280_pressure;Samples;Min_cycle;Max_cycle;Signal;HPM_P1;HPM_P2
2022/03/27 00:02:51;;;;;;;10.07;6.95;;;;;;;11.74;100.00;99643.91;10304723;28;20042;-57
2022/03/27 00:07:54;;;;;;;8.13;7.15;;;;;;;11.69;100.00;99645.19;10307299;28;20476;-58
2022/03/27 00:12:59;;;;;;;10.23;7.47;;;;;;;11.67;100.00;99652.56;10305775;28;20411;-59
2022/03/27 00:18:02;;;;;;;8.52;7.28;;;;;;;11.60;100.00;99651.41;10274937;28;20050;-59
2022/03/27 00:23:05;;;;;;;7.82;7.03;;;;;;;11.54;100.00;99657.34;10295380;28;20436;-58
2022/03/27 00:28:10;;;;;;;8.45;7.25;;;;;;;11.51;100.00;99649.53;10305038;28;20034;-55
2022/03/27 00:33:13;;;;;;;8.82;7.28;;;;;;;11.40;100.00;99648.66;10328680;28;20133;-58
2022/03/27 00:38:16;;;;;;;8.57;7.38;;;;;;;11.38;100.00;99647.91;10312751;28;20041;-58
2022/03/27 00:43:22;;;;;;;9.65;7.57;;;;;;;11.36;100.00;99655.28;10292000;28;20070;-59
2022/03/27 00:48:25;;;;;;;9.18;7.60;;;;;;;11.33;100.00;99647.50;10298432;28;20039;-58
2022/03/27 00:53:28;;;;;;;9.27;7.28;;;;;;;11.31;100.00;99644.06;10301781;28;20047;-57
2022/03/27 00:58:33;;;;;;;10.50;7.32;;;;;;;11.29;100.00;99635.25;10309236;28;20125;-58
2022/03/27 01:03:37;;;;;;;9.88;7.70;;;;;;;11.24;100.00;99645.59;10296240;28;20043;-58
2022/03/27 01:14:02;;;;;;;8.52;7.60;;;;;;;11.14;100.00;99642.00;10306749;28;20050;-54
2022/03/27 01:19:06;;;;;;;8.18;7.38;;;;;;;11.09;100.00;99640.56;10307656;28;20078;-53
2022/03/27 01:24:11;;;;;;;9.27;7.95;;;;;;;11.03;100.00;99635.69;10308767;28;20490;-58
2022/03/27 01:29:14;;;;;;;8.48;7.57;;;;;;;11.00;100.00;99637.81;10280228;28;20299;-53
2022/03/27 01:34:17;;;;;;;10.38;8.20;;;;;;;10.93;100.00;99640.19;10291414;28;20245;-54
2022/03/27 01:39:22;;;;;;;9.45;7.93;;;;;;;10.90;100.00;99640.44;10312162;28;20053;-53
2022/03/27 01:44:25;;;;;;;9.52;8.20;;;;;;;10.85;100.00;99640.00;10320398;28;20411;-57
2022/03/27 01:49:29;;;;;;;10.05;8.20;;;;;;;10.76;100.00;99634.41;10305645;28;20059;-58
2022/03/27 01:54:34;;;;;;;12.48;8.82;;;;;;;10.70;100.00;99645.75;10315528;28;20073;-55
2022/03/27 01:59:37;;;;;;;9.85;8.77;;;;;;;10.67;100.00;99637.91;10310349;28;20515;-58
2022/03/27 02:04:43;;;;;;;10.20;9.10;;;;;;;10.65;100.00;99647.97;10332181;28;20030;-59
2022/03/27 02:09:47;;;;;;;10.45;9.25;;;;;;;10.62;100.00;99642.84;10357297;28;20058;-61
2022/03/27 02:14:50;;;;;;;10.45;8.75;;;;;;;10.59;100.00;99649.34;10376597;28;20057;-61
2022/03/27 02:19:53;;;;;;;14.10;10.02;;;;;;;10.54;100.00;99656.09;10362356;28;20023;-59
2022/03/27 02:24:57;;;;;;;10.80;9.60;;;;;;;10.53;100.00;99651.69;10329088;28;20054;-61
2022/03/27 02:30:00;;;;;;;11.75;9.60;;;;;;;10.52;100.00;99645.47;10306106;28;20035;-58
2022/03/27 02:35:04;;;;;;;11.93;9.90;;;;;;;10.51;100.00;99637.53;10306340;28;20125;-59
2022/03/27 02:40:10;;;;;;;12.18;10.20;;;;;;;10.50;100.00;99636.66;10287720;28;20377;-58
2022/03/27 02:45:13;;;;;;;10.13;9.13;;;;;;;10.47;100.00;99645.88;10302543;28;20444;-58
2022/03/27 02:50:16;;;;;;;10.38;9.25;;;;;;;10.48;100.00;99646.72;10304334;28;20034;-59
2022/03/27 02:55:20;;;;;;;11.68;9.57;;;;;;;10.52;100.00;99650.03;10307656;28;20058;-59
2022/03/27 03:00:25;;;;;;;10.00;9.00;;;;;;;10.51;100.00;99651.00;10303882;28;20039;-56
2022/03/27 03:05:28;;;;;;;11.20;9.00;;;;;;;10.50;100.00;99654.69;10297251;28;20054;-60
2022/03/27 03:10:33;;;;;;;10.93;9.20;;;;;;;10.49;100.00;99648.41;10302652;28;20038;-57
2022/03/27 03:15:37;;;;;;;12.32;9.27;;;;;;;10.46;100.00;99646.00;10308746;28;20096;-57
2022/03/27 03:20:40;;;;;;;10.05;8.90;;;;;;;10.44;100.00;99647.97;10293454;28;20376;-58
2022/03/27 03:25:45;;;;;;;11.27;9.65;;;;;;;10.42;100.00;99650.78;10296032;28;20059;-56
2022/03/27 03:31:08;;;;;;;13.10;9.45;;;;;;;10.42;100.00;99656.16;10279925;28;20046;-55
2022/03/27 03:36:11;;;;;;;12.10;9.77;;;;;;;10.41;100.00;99643.69;10294216;28;20510;-58
2022/03/27 03:41:16;;;;;;;11.15;9.50;;;;;;;10.40;100.00;99643.81;10298170;28;20035;-55
2022/03/27 03:46:19;;;;;;;12.05;9.30;;;;;;;10.39;100.00;99653.75;10297619;28;20092;-60
2022/03/27 03:51:22;;;;;;;11.25;9.32;;;;;;;10.38;100.00;99643.97;10290702;28;20039;-59
2022/03/27 03:56:26;;;;;;;9.93;8.90;;;;;;;10.36;100.00;99659.34;10294060;28;20153;-57
2022/03/27 04:01:29;;;;;;;10.45;8.60;;;;;;;10.39;100.00;99672.63;10286818;28;20105;-55
2022/03/27 04:06:33;;;;;;;10.02;8.35;;;;;;;10.40;100.00;99657.28;10322423;23;20055;-54
2022/03/27 04:11:37;;;;;;;9.82;8.80;;;;;;;10.40;100.00;99668.06;10260495;28;20054;-56
2022/03/27 04:16:40;;;;;;;10.52;9.15;;;;;;;10.40;100.00;99666.25;10267465;28;20381;-56
2022/03/27 04:21:43;;;;;;;10.80;8.93;;;;;;;10.38;100.00;99665.50;10262292;28;20043;-54
2022/03/27 04:26:48;;;;;;;11.07;8.52;;;;;;;10.35;100.00;99656.81;10255386;28;20074;-56
2022/03/27 04:31:52;;;;;;;10.98;8.70;;;;;;;10.33;100.00;99662.31;10254932;28;20126;-56
2022/03/27 04:36:55;;;;;;;10.00;8.23;;;;;;;10.27;100.00;99666.38;10266432;28;20150;-55
2022/03/27 04:41:59;;;;;;;11.88;9.45;;;;;;;10.25;100.00;99675.56;10266975;28;20050;-55
2022/03/27 04:47:02;;;;;;;10.95;9.32;;;;;;;10.19;100.00;99674.25;10261087;28;20055;-56
2022/03/27 04:52:06;;;;;;;10.60;9.40;;;;;;;10.15;100.00;99665.56;10269620;28;20043;-56
2022/03/27 04:57:10;;;;;;;12.32;10.63;;;;;;;10.09;100.00;99676.00;10264174;28;20039;-53
2022/03/27 05:02:13;;;;;;;12.02;10.38;;;;;;;9.91;100.00;99670.28;10297147;28;20407;-56
2022/03/27 05:07:16;;;;;;;12.00;10.65;;;;;;;9.80;100.00;99680.09;10298301;28;20066;-55
2022/03/27 05:12:20;;;;;;;11.48;10.07;;;;;;;9.77;100.00;99674.97;10304379;28;20421;-55
2022/03/27 05:17:23;;;;;;;11.95;10.57;;;;;;;9.69;100.00;99670.22;10310573;28;20132;-57
2022/03/27 05:22:26;;;;;;;12.68;10.93;;;;;;;9.66;100.00;99680.38;10312882;28;20050;-58
2022/03/27 05:27:30;;;;;;;13.02;11.23;;;;;;;9.65;100.00;99681.34;10302085;28;20182;-57
2022/03/27 05:32:34;;;;;;;12.52;10.10;;;;;;;9.60;100.00;99679.03;10300331;28;20057;-54
2022/03/27 05:37:38;;;;;;;12.52;10.70;;;;;;;9.59;100.00;99684.50;10273033;28;20148;-57
2022/03/27 05:42:43;;;;;;;12.30;10.68;;;;;;;9.58;100.00;99689.06;10300141;28;20061;-56
2022/03/27 05:47:46;;;;;;;14.40;11.25;;;;;;;9.48;100.00;99697.00;10296536;28;20553;-55
2022/03/27 05:52:51;;;;;;;11.82;9.98;;;;;;;9.51;100.00;99695.94;10303162;28;20069;-57
2022/03/27 05:57:55;;;;;;;12.05;10.75;;;;;;;9.53;100.00;99704.69;10294505;28;20051;-57
2022/03/27 06:02:58;;;;;;;11.70;9.93;;;;;;;9.59;100.00;99703.34;10273968;28;20414;-57
2022/03/27 06:08:01;;;;;;;12.15;10.13;;;;;;;9.62;100.00;99712.06;10294189;28;20124;-56
2022/03/27 06:13:06;;;;;;;11.75;9.63;;;;;;;9.68;100.00;99708.84;10292935;28;20037;-57
2022/03/27 06:18:10;;;;;;;12.23;9.93;;;;;;;9.71;100.00;99710.44;10290464;28;20499;-57
2022/03/27 06:23:13;;;;;;;11.57;9.40;;;;;;;9.81;100.00;99716.81;10295937;28;20790;-56
2022/03/27 06:28:17;;;;;;;10.77;9.48;;;;;;;9.86;100.00;99717.28;10295571;28;20053;-56
2022/03/27 06:33:21;;;;;;;9.98;8.65;;;;;;;9.91;100.00;99718.75;10286062;28;20058;-57
2022/03/27 06:38:23;;;;;;;9.88;8.80;;;;;;;9.95;100.00;99714.81;10303250;28;20049;-56
2022/03/27 06:43:28;;;;;;;10.07;8.98;;;;;;;10.00;100.00;99712.59;10302617;28;20419;-56
2022/03/27 06:48:31;;;;;;;11.82;9.02;;;;;;;10.06;100.00;99712.09;10317250;28;20093;-58
2022/03/27 06:53:34;;;;;;;9.88;8.32;;;;;;;10.11;100.00;99717.97;10305699;28;20049;-57
2022/03/27 06:58:39;;;;;;;10.50;8.60;;;;;;;10.22;100.00;99721.59;10300579;28;20125;-58
2022/03/27 07:03:42;;;;;;;11.55;8.82;;;;;;;10.31;100.00;99719.00;10311491;28;20489;-56
2022/03/27 07:08:46;;;;;;;11.88;9.32;;;;;;;10.41;100.00;99719.13;10304133;28;20423;-56
2022/03/27 07:13:51;;;;;;;10.80;8.77;;;;;;;10.52;100.00;99723.63;10299045;28;20035;-58
2022/03/27 07:18:54;;;;;;;12.02;8.75;;;;;;;10.64;100.00;99710.97;10291655;28;20047;-58
2022/03/27 07:24:01;;;;;;;9.48;8.48;;;;;;;10.77;100.00;99717.00;10298907;28;20114;-59
2022/03/27 07:29:08;;;;;;;9.05;8.13;;;;;;;10.90;100.00;99715.94;10303517;28;20610;-58
2022/03/27 07:34:13;;;;;;;10.52;8.50;;;;;;;10.99;100.00;99715.19;10302888;28;20046;-57
2022/03/27 07:39:16;;;;;;;9.40;8.38;;;;;;;11.10;100.00;99716.94;10288779;28;20043;-58
2022/03/27 07:44:21;;;;;;;10.48;8.55;;;;;;;11.13;100.00;99716.69;10293501;28;20138;-56
2022/03/27 07:49:24;;;;;;;9.45;7.85;;;;;;;11.24;100.00;99713.03;10295449;28;20137;-57
2022/03/27 07:54:27;;;;;;;8.50;7.57;;;;;;;11.38;100.00;99719.94;10289223;28;20121;-57
2022/03/27 07:59:32;;;;;;;8.70;7.60;;;;;;;11.54;100.00;99719.44;10266790;28;20075;-58
2022/03/27 08:04:35;;;;;;;9.60;7.55;;;;;;;11.60;100.00;99713.47;10285004;28;20467;-55
2022/03/27 08:09:39;;;;;;;9.00;7.22;;;;;;;11.71;100.00;99726.88;10291368;28;20081;-58
2022/03/27 08:14:43;;;;;;;7.38;6.55;;;;;;;11.84;100.00;99723.09;10290103;28;20035;-57
2022/03/27 08:19:47;;;;;;;7.32;6.63;;;;;;;11.93;100.00;99707.91;10271607;28;20073;-58
2022/03/27 08:24:51;;;;;;;10.15;6.90;;;;;;;12.08;100.00;99714.66;10288361;28;20443;-58
2022/03/27 08:29:56;;;;;;;6.63;6.00;;;;;;;12.25;100.00;99709.56;10269047;28;20063;-58
2022/03/27 08:34:59;;;;;;;7.03;6.25;;;;;;;12.39;100.00;99708.31;10304736;28;20050;-58
2022/03/27 08:40:02;;;;;;;6.95;5.72;;;;;;;12.61;100.00;99712.56;10289552;28;20042;-57
2022/03/27 08:45:08;;;;;;;5.72;4.82;;;;;;;12.79;100.00;99718.97;10304807;28;20046;-59
2022/03/27 08:50:26;;;;;;;5.65;4.72;;;;;;;12.89;100.00;99727.06;10306402;28;20060;-57
2022/03/27 08:55:39;;;;;;;7.07;4.95;;;;;;;12.97;100.00;99736.31;10314500;28;20051;-57
2022/03/27 09:00:44;;;;;;;5.88;5.15;;;;;;;13.09;100.00;99740.56;10305206;28;20198;-59
2022/03/27 09:05:48;;;;;;;5.25;4.28;;;;;;;13.20;100.00;99739.53;10304047;28;20047;-58
2022/03/27 09:10:51;;;;;;;5.00;4.50;;;;;;;13.31;100.00;99735.81;10306360;28;20081;-59
2022/03/27 09:16:01;;;;;;;5.25;4.60;;;;;;;13.46;100.00;99739.81;10300913;28;20054;-58
2022/03/27 09:21:04;;;;;;;5.05;4.55;;;;;;;13.53;100.00;99740.91;10305745;28;20059;-59
2022/03/27 09:26:09;;;;;;;6.10;4.45;;;;;;;13.67;100.00;99736.03;10304080;28;20109;-59
2022/03/27 09:31:27;;;;;;;4.63;4.22;;;;;;;13.69;100.00;99734.03;10313576;28;20056;-64
2022/03/27 09:36:32;;;;;;;6.15;4.95;;;;;;;13.53;100.00;99730.09;10344192;28;20054;-57
2022/03/27 09:41:42;;;;;;;4.38;3.97;;;;;;;13.55;100.00;99732.63;10339048;28;20050;-61
2022/03/27 09:47:08;;;;;;;4.75;4.30;;;;;;;13.75;100.00;99728.00;10341919;28;20125;-58
2022/03/27 09:52:12;;;;;;;4.88;4.15;;;;;;;13.90;100.00;99732.91;10333817;28;20359;-55
2022/03/27 09:57:20;;;;;;;4.70;4.20;;;;;;;14.00;100.00;99722.88;10338671;28;20410;-60
2022/03/27 10:02:27;;;;;;;6.13;4.20;;;;;;;14.17;100.00;99719.34;10335701;28;20034;-59
2022/03/27 10:07:39;;;;;;;4.13;3.72;;;;;;;14.32;100.00;99713.41;10351820;23;20061;-78
2022/03/27 10:12:44;;;;;;;;;;;;;;;14.37;100.00;99716.50;10333322;28;20074;-79
2022/03/27 10:17:52;;;;;;;5.35;4.03;;;;;;;14.55;100.00;99712.94;10338925;28;19960;-80
2022/03/27 10:23:02;;;;;;;3.63;3.33;;;;;;;14.63;100.00;99716.59;10320968;28;20074;-80
2022/03/27 10:28:06;;;;;;;3.70;3.25;;;;;;;14.65;100.00;99719.13;10321636;28;20050;-79
2022/03/27 10:33:12;;;;;;;3.88;3.50;;;;;;;14.84;100.00;99707.28;10334360;28;20047;-79
2022/03/27 10:38:28;;;;;;;3.35;3.05;;;;;;;14.92;100.00;99709.22;10340421;28;20137;-78
2022/03/27 10:43:41;;;;;;;5.45;3.20;;;;;;;14.90;100.00;99701.25;10313592;28;20619;-78
2022/03/27 10:48:47;;;;;;;3.40;2.88;;;;;;;14.92;100.00;99701.94;10324164;28;20046;-78
2022/03/27 10:54:02;;;;;;;3.45;2.80;;;;;;;14.88;100.00;99695.13;10315393;28;20042;-79
2022/03/27 10:59:10;;;;;;;2.90;2.55;;;;;;;14.86;100.00;99699.00;10345697;28;20054;-79
2022/03/27 11:04:16;;;;;;;3.25;2.85;;;;;;;14.97;100.00;99696.03;10320850;28;20043;-80
2022/03/27 11:09:34;;;;;;;3.15;2.88;;;;;;;15.07;100.00;99699.50;10305923;28;20092;-82
2022/03/27 11:14:58;;;;;;;3.00;2.70;;;;;;;15.02;100.00;99693.69;10311074;28;20042;-83
2022/03/27 11:20:06;;;;;;;3.20;2.50;;;;;;;15.05;100.00;99687.09;10332046;28;20054;-84
2022/03/27 11:25:34;;;;;;;2.53;2.33;;;;;;;15.11;100.00;99686.47;10304979;28;20038;-81
2022/03/27 11:31:00;;;;;;;3.58;2.25;;;;;;;15.09;100.00;99675.78;10325472;28;20042;-83
2022/03/27 11:36:26;;;;;;;1.90;1.80;;;;;;;15.20;96.43;99679.22;10294449;28;20047;-81
2022/03/27 11:41:34;;;;;;;1.40;1.30;;;;;;;15.03;88.23;99665.53;10307542;28;20057;-82
2022/03/27 11:46:38;;;;;;;1.52;1.42;;;;;;;15.09;84.82;99662.19;10319842;28;20078;-83
2022/03/27 11:51:42;;;;;;;1.98;1.63;;;;;;;15.28;85.55;99660.25;10300914;28;20046;-81
2022/03/27 11:56:54;;;;;;;1.63;1.52;;;;;;;15.14;84.40;99653.56;10304660;28;20077;-81
2022/03/27 12:01:59;;;;;;;1.60;1.50;;;;;;;15.36;85.15;99645.88;10326243;28;20055;-82
2022/03/27 12:07:04;;;;;;;1.48;1.38;;;;;;;15.54;80.86;99635.75;10304591;28;20485;-80
2022/03/27 12:12:11;;;;;;;1.70;1.60;;;;;;;15.60;81.73;99634.25;10304572;28;20507;-81
2022/03/27 12:17:14;;;;;;;2.65;2.40;;;;;;;15.73;90.77;99625.66;10310522;28;20085;-80
2022/03/27 12:22:32;;;;;;;3.78;2.40;;;;;;;15.90;87.72;99626.56;10305237;28;20060;-80
2022/03/27 12:33:04;;;;;;;2.35;2.15;;;;;;;15.72;81.66;99613.91;10340287;28;20076;-81
2022/03/27 12:38:10;;;;;;;2.53;2.33;;;;;;;15.74;87.96;99604.75;10365765;28;20069;-81
2022/03/27 12:43:16;;;;;;;2.67;2.20;;;;;;;15.68;89.90;99601.69;10360310;28;20069;-79
2022/03/27 12:48:21;;;;;;;2.10;2.00;;;;;;;15.66;91.04;99605.56;10370321;28;20066;-78
2022/03/27 12:53:29;;;;;;;2.40;2.20;;;;;;;15.82;89.72;99599.34;10361959;28;20141;-78
2022/03/27 12:58:38;;;;;;;4.22;2.10;;;;;;;15.97;87.89;99599.59;10378981;28;20484;-80
2022/03/27 13:03:59;;;;;;;2.13;2.00;;;;;;;16.11;87.89;99603.50;10371591;28;20046;-85
2022/03/27 13:09:08;;;;;;;;;;;;;;;15.91;76.08;99598.38;10359591;28;20061;-81
2022/03/27 13:14:14;;;;;;;2.30;2.10;;;;;;;16.00;86.65;99600.09;10348016;28;20020;-84
2022/03/27 13:19:24;;;;;;;3.53;2.00;;;;;;;16.06;83.07;99590.41;10352062;28;20085;-81
2022/03/27 13:24:31;;;;;;;2.47;2.28;;;;;;;16.14;80.33;99584.16;10363288;28;20076;-81
2022/03/27 13:29:36;;;;;;;2.15;1.95;;;;;;;16.21;83.00;99582.44;10349822;28;20042;-80
2022/03/27 13:34:40;;;;;;;2.20;2.00;;;;;;;16.58;85.07;99575.63;10371136;28;20093;-81
2022/03/27 13:39:44;;;;;;;2.10;2.00;;;;;;;17.13;75.78;99573.13;10352877;28;20057;-82
2022/03/27 13:44:47;;;;;;;2.35;1.98;;;;;;;17.44;73.74;99569.63;10363033;28;20077;-80
2022/03/27 13:49:50;;;;;;;1.83;1.73;;;;;;;17.61;69.59;99562.22;10342292;28;20412;-79
2022/03/27 13:54:55;;;;;;;1.92;1.83;;;;;;;17.93;70.81;99559.47;10367712;28;20501;-82
2022/03/27 13:59:58;;;;;;;2.30;2.10;;;;;;;17.92;64.54;99555.03;10377843;28;20054;-80
2022/03/27 14:05:01;;;;;;;1.92;1.83;;;;;;;17.54;64.59;99544.88;10364051;28;20049;-80
2022/03/27 14:10:06;;;;;;;2.00;1.90;;;;;;;17.87;63.70;99545.50;10356875;28;20518;-82
2022/03/27 14:15:10;;;;;;;1.90;1.80;;;;;;;18.20;62.33;99535.41;10346514;28;20053;-83
2022/03/27 14:20:17;;;;;;;2.08;1.88;;;;;;;18.37;62.74;99528.78;10356337;28;20049;-82
2022/03/27 14:25:21;;;;;;;2.53;2.33;;;;;;;18.52;60.30;99527.97;10363573;28;20149;-80
2022/03/27 14:30:24;;;;;;;2.30;2.10;;;;;;;18.75;60.43;99520.56;10360909;28;20053;-82
2022/03/27 14:35:28;;;;;;;2.40;2.20;;;;;;;17.57;62.07;99517.25;10352189;28;20042;-82
2022/03/27 14:40:36;;;;;;;2.25;2.15;;;;;;;17.90;61.97;99516.19;10374084;28;20176;-80
2022/03/27 14:45:40;;;;;;;2.30;2.10;;;;;;;18.40;59.52;99508.47;10371219;28;20076;-81
2022/03/27 14:50:44;;;;;;;1.90;1.80;;;;;;;18.69;58.41;99506.81;10413935;28;20030;-81
2022/03/27 14:56:01;;;;;;;1.73;1.63;;;;;;;18.61;58.49;99499.56;10364115;28;20463;-81
2022/03/27 15:01:05;;;;;;;2.20;2.00;;;;;;;18.87;57.67;99490.88;10350858;28;20050;-81
2022/03/27 15:06:09;;;;;;;1.88;1.77;;;;;;;19.22;57.98;99485.69;10350264;28;20049;-81
2022/03/27 15:11:13;;;;;;;1.92;1.73;;;;;;;19.49;54.53;99487.88;10360495;28;20161;-82
2022/03/27 15:16:17;;;;;;;1.67;1.58;;;;;;;19.38;54.28;99478.31;10351658;28;20046;-82
2022/03/27 15:21:21;;;;;;;1.60;1.50;;;;;;;19.70;53.56;99478.84;10340136;28;20482;-82
2022/03/27 15:26:26;;;;;;;1.65;1.55;;;;;;;19.89;53.37;99469.19;10348209;28;20331;-81
2022/03/27 15:31:29;;;;;;;1.70;1.60;;;;;;;19.96;52.89;99464.63;10354869;28;20434;-81
2022/03/27 15:36:32;;;;;;;1.85;1.70;;;;;;;20.08;52.67;99461.34;10345403;28;20680;-81
2022/03/27 15:41:37;;;;;;;1.83;1.50;;;;;;;20.27;52.83;99452.47;10359683;28;20073;-81
2022/03/27 15:46:40;;;;;;;1.70;1.60;;;;;;;20.40;52.20;99448.97;10362231;28;20121;-81
2022/03/27 15:51:43;;;;;;;1.60;1.50;;;;;;;20.13;51.80;99440.56;10340314;28;20494;-81
2022/03/27 15:56:48;;;;;;;1.50;1.40;;;;;;;20.25;51.48;99438.13;10349405;28;20418;-84
2022/03/27 16:01:51;;;;;;;3.35;1.42;;;;;;;19.98;51.64;99440.66;10366736;28;20069;-82
2022/03/27 16:06:54;;;;;;;1.55;1.45;;;;;;;20.13;51.72;99437.00;10345924;28;20133;-83
2022/03/27 16:11:59;;;;;;;1.70;1.60;;;;;;;19.88;51.54;99437.41;10349696;28;20092;-83
2022/03/27 16:17:05;;;;;;;2.25;1.70;;;;;;;19.81;52.00;99436.50;10367065;28;20118;-80
2022/03/27 16:22:09;;;;;;;1.88;1.77;;;;;;;19.52;52.84;99430.09;10378383;28;20076;-80
2022/03/27 16:27:14;;;;;;;2.33;1.95;;;;;;;19.35;53.23;99430.34;10363842;28;20166;-80
2022/03/27 16:32:17;;;;;;;2.10;2.00;;;;;;;19.25;53.77;99424.34;10362085;28;20100;-82
2022/03/27 16:37:22;;;;;;;3.40;2.10;;;;;;;19.00;53.35;99426.59;10359722;28;20069;-81
2022/03/27 16:42:27;;;;;;;2.30;2.10;;;;;;;18.72;54.51;99425.38;10338509;28;20104;-82
2022/03/27 16:47:30;;;;;;;2.30;2.10;;;;;;;18.57;55.02;99430.00;10356130;28;20133;-82
2022/03/27 16:52:34;;;;;;;2.83;2.50;;;;;;;18.26;56.16;99422.84;10346605;28;20076;-83
2022/03/27 16:57:40;;;;;;;2.80;2.60;;;;;;;17.91;57.92;99425.19;10385172;28;20042;-80
2022/03/27 17:02:43;;;;;;;3.25;2.90;;;;;;;17.70;58.57;99424.00;10361682;28;20098;-79
2022/03/27 17:07:46;;;;;;;5.07;2.80;;;;;;;17.48;59.21;99432.00;10333405;28;20050;-80
2022/03/27 17:12:51;;;;;;;3.13;2.70;;;;;;;17.13;60.94;99430.72;10337607;28;20058;-80
2022/03/27 17:17:54;;;;;;;7.03;3.90;;;;;;;16.65;63.86;99426.16;10367655;28;20069;-79
2022/03/27 17:23:00;;;;;;;2.70;2.50;;;;;;;16.30;66.09;99425.56;10358199;28;20499;-78
2022/03/27 17:28:06;;;;;;;2.63;2.42;;;;;;;16.08;67.91;99435.28;10343470;28;20045;-79
2022/03/27 17:33:10;;;;;;;2.70;2.50;;;;;;;15.74;70.22;99437.16;10360318;28;20060;-80
2022/03/27 17:38:13;;;;;;;3.50;3.20;;;;;;;15.25;75.60;99437.94;10362248;28;20137;-81
2022/03/27 17:43:18;;;;;;;4.55;3.25;;;;;;;14.68;84.41;99435.91;10360635;28;20159;-82
2022/03/27 17:48:22;;;;;;;3.70;3.40;;;;;;;14.30;91.18;99436.19;10343234;28;20046;-81
2022/03/27 17:53:25;;;;;;;3.40;3.10;;;;;;;14.08;93.75;99435.72;10347876;28;20073;-81
2022/03/27 17:58:29;;;;;;;4.10;3.28;;;;;;;13.89;97.07;99441.34;10375356;28;20052;-84
2022/03/27 18:03:32;;;;;;;3.60;3.30;;;;;;;13.73;97.60;99450.19;10337819;28;20054;-84
2022/03/27 18:08:36;;;;;;;3.40;3.20;;;;;;;13.30;100.00;99448.06;10352653;28;20085;-83
2022/03/27 18:13:43;;;;;;;4.07;3.40;;;;;;;12.92;100.00;99450.88;10366488;28;20129;-82
2022/03/27 18:18:47;;;;;;;4.03;3.65;;;;;;;12.74;100.00;99450.00;10338412;28;20050;-82
2022/03/27 18:23:50;;;;;;;4.07;3.78;;;;;;;12.55;100.00;99459.03;10373351;28;20052;-79
2022/03/27 18:28:59;;;;;;;4.05;3.75;;;;;;;12.45;100.00;99461.75;10368527;28;20065;-80
2022/03/27 18:34:02;;;;;;;4.57;4.20;;;;;;;12.39;100.00;99459.66;10406562;28;20142;-80
2022/03/27 18:39:05;;;;;;;4.70;4.30;;;;;;;12.32;100.00;99470.22;10368690;28;20042;-81
2022/03/27 18:44:09;;;;;;;4.57;4.18;;;;;;;12.25;100.00;99475.34;10383712;28;20074;-81
2022/03/27 18:49:13;;;;;;;5.05;4.65;;;;;;;12.13;100.00;99473.81;10346259;28;20082;-77
2022/03/27 18:54:16;;;;;;;5.20;4.80;;;;;;;11.99;100.00;99475.97;10361356;28;20060;-79
2022/03/27 18:59:21;;;;;;;5.93;5.43;;;;;;;11.86;100.00;99459.16;10349693;28;20046;-79
2022/03/27 19:04:24;;;;;;;5.70;5.30;;;;;;;11.73;100.00;99462.19;10355361;28;20044;-79
2022/03/27 19:09:28;;;;;;;6.25;5.75;;;;;;;11.69;100.00;99468.84;10341291;28;20054;-77
2022/03/27 19:14:32;;;;;;;6.47;5.97;;;;;;;11.54;100.00;99471.13;10335664;28;20037;-79
2022/03/27 19:19:37;;;;;;;6.70;6.20;;;;;;;11.42;100.00;99465.00;10333109;28;20046;-78
2022/03/27 19:24:40;;;;;;;6.45;5.95;;;;;;;11.38;100.00;99467.13;10354507;28;20052;-77
2022/03/27 19:29:45;;;;;;;6.50;5.82;;;;;;;11.35;100.00;99467.41;10342202;28;20073;-77
2022/03/27 19:34:48;;;;;;;6.90;6.30;;;;;;;11.28;100.00;99471.69;10355417;28;20054;-82
2022/03/27 19:39:51;;;;;;;6.82;6.15;;;;;;;11.19;100.00;99475.22;10339886;28;20072;-81
2022/03/27 19:44:56;;;;;;;6.57;6.07;;;;;;;11.12;100.00;99474.91;10376092;28;20129;-81
2022/03/27 19:49:59;;;;;;;6.68;6.18;;;;;;;10.98;100.00;99460.00;10358656;28;20537;-82
2022/03/27 19:55:02;;;;;;;7.22;6.63;;;;;;;10.93;100.00;99456.84;10352262;28;20045;-80
2022/03/27 20:00:11;;;;;;;7.22;6.65;;;;;;;10.88;100.00;99459.09;10347305;28;20046;-80
2022/03/27 20:05:14;;;;;;;7.20;6.68;;;;;;;10.85;100.00;99464.78;10351113;28;20496;-81
2022/03/27 20:10:19;;;;;;;7.57;6.97;;;;;;;10.73;100.00;99456.78;10348820;28;20058;-80
2022/03/27 20:15:24;;;;;;;7.30;6.80;;;;;;;10.58;100.00;99460.84;10346595;28;20042;-80
2022/03/27 20:20:27;;;;;;;7.60;7.00;;;;;;;10.40;100.00;99457.94;10343485;28;20057;-81
2022/03/27 20:25:31;;;;;;;7.82;7.22;;;;;;;10.25;100.00;99452.03;10372600;28;20283;-80
2022/03/27 20:30:36;;;;;;;8.15;7.55;;;;;;;10.13;100.00;99462.00;10387940;28;20046;-80
2022/03/27 20:35:39;;;;;;;8.43;7.80;;;;;;;9.98;100.00;99450.72;10358024;28;20062;-80
2022/03/27 20:40:43;;;;;;;9.43;8.73;;;;;;;9.76;100.00;99455.25;10347463;28;20576;-80
2022/03/27 20:45:48;;;;;;;9.80;9.00;;;;;;;9.53;100.00;99441.91;10383456;28;20049;-81
2022/03/27 20:50:51;;;;;;;10.00;9.20;;;;;;;9.43;100.00;99440.13;10368358;28;20545;-81
2022/03/27 20:55:57;;;;;;;9.70;8.90;;;;;;;9.41;100.00;99446.47;10387197;28;20136;-80
2022/03/27 21:01:02;;;;;;;10.27;9.48;;;;;;;9.34;100.00;99437.22;10358953;28;20124;-80
2022/03/27 21:06:05;;;;;;;9.88;9.07;;;;;;;9.27;100.00;99436.03;10341324;28;20490;-80
2022/03/27 21:11:10;;;;;;;9.05;8.30;;;;;;;9.23;100.00;99435.41;10344886;28;20077;-80
2022/03/27 21:16:15;;;;;;;9.13;8.40;;;;;;;9.18;100.00;99431.41;10353965;28;20047;-80
2022/03/27 21:21:18;;;;;;;9.25;8.55;;;;;;;9.12;100.00;99438.16;10349893;28;20455;-83
2022/03/27 21:26:21;;;;;;;9.52;8.82;;;;;;;9.05;100.00;99442.34;10362355;28;20050;-80
2022/03/27 21:31:27;;;;;;;9.63;8.82;;;;;;;8.99;100.00;99432.94;10357720;28;20491;-80
2022/03/27 21:36:30;;;;;;;9.10;8.40;;;;;;;8.91;100.00;99432.72;10358379;28;20569;-80
2022/03/27 21:41:36;;;;;;;10.10;9.30;;;;;;;8.83;100.00;99425.28;10338294;28;20462;-80
2022/03/27 21:46:41;;;;;;;9.68;8.98;;;;;;;8.76;100.00;99433.00;10327830;28;20129;-79
2022/03/27 21:51:43;;;;;;;10.18;9.38;;;;;;;8.67;100.00;99425.69;10401824;28;20080;-81
2022/03/27 21:56:47;;;;;;;9.77;9.07;;;;;;;8.61;100.00;99424.34;10388917;28;20383;-79
2022/03/27 22:01:51;;;;;;;9.73;9.00;;;;;;;8.56;100.00;99426.53;10382281;28;20050;-80
2022/03/27 22:06:54;;;;;;;9.85;8.95;;;;;;;8.51;100.00;99428.75;10372717;28;20079;-80
2022/03/27 22:11:57;;;;;;;10.02;9.23;;;;;;;8.45;100.00;99424.69;10371501;28;20056;-80
2022/03/27 22:17:02;;;;;;;9.90;9.00;;;;;;;8.42;100.00;99424.06;10387203;23;20058;-67
2022/03/27 22:22:05;;;;;;;10.20;9.40;;;;;;;8.37;100.00;99410.19;10340388;28;20049;-67
2022/03/27 22:27:08;;;;;;;10.48;9.68;;;;;;;8.32;100.00;99407.88;10363675;28;20322;-66
2022/03/27 22:32:12;;;;;;;9.80;9.10;;;;;;;8.26;100.00;99401.16;10357064;28;20088;-66
2022/03/27 22:37:15;;;;;;;10.30;9.40;;;;;;;8.21;100.00;99405.19;10360000;28;20133;-67
2022/03/27 22:42:18;;;;;;;10.75;9.95;;;;;;;8.14;100.00;99402.97;10346528;28;20054;-67
2022/03/27 22:47:23;;;;;;;11.30;10.30;;;;;;;8.09;100.00;99398.94;10341019;28;20042;-66
2022/03/27 22:52:26;;;;;;;11.48;10.60;;;;;;;8.02;100.00;99404.81;10336579;28;20406;-65
2022/03/27 22:57:29;;;;;;;11.30;10.40;;;;;;;7.97;100.00;99406.13;10341888;28;20037;-67
2022/03/27 23:02:33;;;;;;;11.50;10.60;;;;;;;7.90;100.00;99397.72;10338084;28;20543;-65
2022/03/27 23:07:36;;;;;;;11.38;10.48;;;;;;;7.82;100.00;99394.78;10361648;28;20046;-67
2022/03/27 23:12:39;;;;;;;10.40;9.60;;;;;;;7.76;100.00;99395.25;10345010;28;20165;-65
2022/03/27 23:17:44;;;;;;;11.60;10.70;;;;;;;7.64;100.00;99387.19;10337568;28;20050;-66
2022/03/27 23:22:47;;;;;;;12.02;11.13;;;;;;;7.52;100.00;99388.13;10331309;28;20491;-66
2022/03/27 23:27:50;;;;;;;11.27;10.38;;;;;;;7.47;100.00;99384.94;10327498;28;20038;-66
2022/03/27 23:32:54;;;;;;;11.82;10.93;;;;;;;7.44;100.00;99387.88;10341533;28;20070;-66
2022/03/27 23:37:57;;;;;;;11.15;10.23;;;;;;;7.42;100.00;99376.41;10342202;28;20037;-66